createdAt,value
2018-06-02T01:36:08.020Z,0.00
2018-06-02T01:36:56.214Z,0.00
2018-06-02T01:40:18.172Z,0.00
2018-06-02T01:41:17.886Z,0.00
2018-06-02T01:42:17.915Z,0.00
2018-06-02T01:43:17.875Z,0.00
2018-06-02T01:44:19.080Z,0.00
2018-06-02T01:45:17.813Z,0.00
2018-06-02T01:46:17.786Z,0.00
2018-06-02T01:47:17.738Z,0.00
2018-06-02T01:48:18.764Z,0.00
2018-06-02T01:49:17.690Z,0.00
2018-06-02T01:50:18.745Z,0.00
2018-06-02T01:51:17.650Z,0.00
2018-06-02T01:52:17.642Z,0.00
2018-06-02T01:53:17.616Z,0.00
2018-06-02T01:54:18.677Z,0.00
2018-06-02T01:55:17.539Z,0.00
2018-06-02T01:56:18.613Z,0.00
2018-06-02T01:57:17.511Z,0.00
2018-06-02T01:58:18.603Z,0.00
2018-06-02T01:59:17.464Z,0.00
2018-06-02T02:00:18.500Z,0.00
2018-06-02T02:01:17.456Z,0.00
2018-06-02T02:02:18.445Z,0.00
2018-06-02T02:03:17.390Z,0.00
2018-06-02T02:04:18.430Z,0.00
2018-06-02T02:05:17.341Z,0.00
2018-06-02T02:06:18.388Z,0.00
2018-06-02T02:07:17.284Z,0.00
2018-06-02T02:08:17.368Z,0.00
2018-06-02T02:09:17.241Z,0.00
2018-06-02T02:10:17.365Z,0.00
2018-06-02T02:11:17.211Z,0.00
2018-06-02T02:12:17.268Z,0.00
2018-06-02T02:13:17.151Z,0.00
2018-06-02T02:14:18.201Z,0.00
2018-06-02T02:15:17.118Z,0.00
2018-06-02T02:16:17.240Z,0.00
2018-06-02T02:17:17.057Z,0.00
2018-06-02T02:18:17.111Z,0.00
2018-06-02T02:19:17.013Z,0.00
2018-06-02T02:20:17.014Z,0.00
2018-06-02T02:21:16.980Z,0.00
2018-06-02T02:22:16.928Z,0.00
2018-06-02T02:23:16.942Z,0.00
2018-06-02T02:24:16.889Z,0.00
2018-06-02T02:25:18.017Z,0.00
2018-06-02T02:26:16.881Z,0.00
2018-06-02T02:27:16.854Z,0.00
2018-06-02T02:28:16.816Z,0.00
2018-06-02T02:29:17.797Z,0.00
2018-06-02T02:30:16.748Z,0.00
2018-06-02T02:31:17.820Z,0.00
2018-06-02T02:32:16.721Z,0.00
2018-06-02T02:33:18.805Z,0.00
2018-06-02T02:34:16.674Z,0.00
2018-06-02T02:35:16.720Z,0.00
2018-06-02T02:36:16.630Z,0.00
2018-06-02T02:37:16.617Z,0.00
2018-06-02T02:38:16.569Z,0.00
2018-06-02T02:39:16.646Z,0.00
2018-06-02T02:40:16.506Z,0.00
2018-06-02T02:41:17.571Z,0.00
2018-06-02T02:42:16.474Z,0.00
2018-06-02T02:43:16.564Z,0.00
2018-06-02T02:44:16.428Z,0.00
2018-06-02T02:45:16.465Z,0.00
2018-06-02T02:46:16.380Z,0.00
2018-06-02T02:47:17.426Z,0.00
2018-06-02T02:48:16.338Z,0.00
2018-06-02T02:49:16.440Z,4.00
2018-06-02T02:50:16.288Z,4.00
2018-06-02T02:51:17.320Z,0.00
2018-06-02T02:52:16.254Z,0.00
2018-06-02T02:53:16.317Z,0.00
2018-06-02T02:54:16.194Z,0.00
2018-06-02T02:55:16.230Z,4.00
2018-06-02T02:56:16.155Z,4.00
2018-06-02T02:57:18.194Z,4.00
2018-06-02T02:58:16.132Z,0.00
2018-06-02T02:59:17.170Z,4.00
2018-06-02T03:00:16.060Z,4.00
2018-06-02T03:01:16.059Z,4.00
2018-06-02T03:02:16.019Z,4.00
2018-06-02T03:03:17.113Z,4.00
2018-06-02T03:04:15.978Z,4.00
2018-06-02T03:05:17.017Z,8.00
2018-06-02T03:06:15.936Z,8.00
2018-06-02T03:07:16.009Z,4.00
2018-06-02T03:08:15.898Z,8.00
2018-06-02T03:09:15.936Z,8.00
2018-06-02T03:10:15.838Z,8.00
2018-06-02T03:11:15.830Z,12.00
2018-06-02T03:12:15.786Z,12.00
2018-06-02T03:13:15.860Z,12.00
2018-06-02T03:14:15.745Z,12.00
2018-06-02T03:15:15.771Z,12.00
2018-06-02T03:16:15.698Z,16.00
2018-06-02T03:17:17.728Z,16.00
2018-06-02T03:18:15.629Z,16.00
2018-06-02T03:19:15.691Z,24.00
2018-06-02T03:20:15.589Z,24.00
2018-06-02T03:21:15.597Z,28.00
2018-06-02T03:22:15.552Z,28.00
2018-06-02T03:23:16.627Z,32.00
2018-06-02T03:24:15.528Z,36.00
2018-06-02T03:25:15.537Z,32.00
2018-06-02T03:26:15.470Z,36.00
2018-06-02T03:27:15.530Z,40.00
2018-06-02T03:28:15.453Z,36.00
2018-06-02T03:29:15.438Z,40.00
2018-06-02T03:30:15.375Z,40.00
2018-06-02T03:31:15.452Z,40.00
2018-06-02T03:32:15.310Z,48.00
2018-06-02T03:33:17.420Z,48.00
2018-06-02T03:34:15.343Z,52.00
2018-06-02T03:35:16.317Z,56.00
2018-06-02T03:36:15.259Z,60.00
2018-06-02T03:37:19.796Z,76.00
2018-06-02T03:38:15.191Z,72.00
2018-06-02T03:39:15.331Z,80.00
2018-06-02T03:40:15.156Z,80.00
2018-06-02T03:41:16.277Z,76.00
2018-06-02T03:42:15.077Z,76.00
2018-06-02T03:43:16.185Z,80.00
2018-06-02T03:44:15.059Z,84.00
2018-06-02T03:45:15.166Z,84.00
2018-06-02T03:46:15.003Z,84.00
2018-06-02T03:47:15.064Z,92.00
2018-06-02T03:48:14.995Z,88.00
2018-06-02T03:49:15.093Z,108.00
2018-06-02T03:50:14.914Z,112.00
2018-06-02T03:51:16.034Z,124.00
2018-06-02T03:52:14.859Z,144.00
2018-06-02T03:53:15.014Z,136.00
2018-06-02T03:54:14.819Z,176.00
2018-06-02T03:55:14.925Z,180.00
2018-06-02T03:56:14.762Z,172.00
2018-06-02T03:57:14.911Z,168.00
2018-06-02T03:58:14.739Z,168.00
2018-06-02T03:59:15.871Z,192.00
2018-06-02T04:00:14.729Z,184.00
2018-06-02T04:01:15.784Z,176.00
2018-06-02T04:02:14.664Z,200.00
2018-06-02T04:03:14.771Z,172.00
2018-06-02T04:04:14.611Z,196.00
2018-06-02T04:05:15.707Z,196.00
2018-06-02T04:06:14.532Z,228.00
2018-06-02T04:07:15.587Z,224.00
2018-06-02T04:08:14.497Z,252.00
2018-06-02T04:09:14.576Z,268.00
2018-06-02T04:10:14.450Z,260.00
2018-06-02T04:11:14.525Z,260.00
2018-06-02T04:12:14.406Z,272.00
2018-06-02T04:13:14.530Z,300.00
2018-06-02T04:14:14.369Z,324.00
2018-06-02T04:15:15.363Z,344.00
2018-06-02T04:16:14.306Z,360.00
2018-06-02T04:17:16.444Z,328.00
2018-06-02T04:18:14.262Z,324.00
2018-06-02T04:19:20.411Z,320.00
2018-06-02T04:20:14.216Z,344.00
2018-06-02T04:21:24.806Z,352.00
2018-06-02T04:22:14.199Z,372.00
2018-06-02T04:23:14.294Z,368.00
2018-06-02T04:24:14.144Z,392.00
2018-06-02T04:25:16.253Z,400.00
2018-06-02T04:26:14.090Z,408.00
2018-06-02T04:27:14.220Z,392.00
2018-06-02T04:28:14.096Z,420.00
2018-06-02T04:29:14.136Z,436.00
2018-06-02T04:30:14.010Z,432.00
2018-06-02T04:31:14.153Z,384.00
2018-06-02T04:32:13.960Z,396.00
2018-06-02T04:33:14.053Z,376.00
2018-06-02T04:34:13.884Z,380.00
2018-06-02T04:35:13.960Z,352.00
2018-06-02T04:36:13.869Z,348.00
2018-06-02T04:37:13.984Z,384.00
2018-06-02T04:38:13.800Z,364.00
2018-06-02T04:39:14.922Z,380.00
2018-06-02T04:40:13.779Z,408.00
2018-06-02T04:41:13.900Z,396.00
2018-06-02T04:42:13.704Z,452.00
2018-06-02T04:43:13.811Z,464.00
2018-06-02T04:44:13.694Z,436.00
2018-06-02T04:45:15.657Z,464.00
2018-06-02T04:46:13.616Z,404.00
2018-06-02T04:47:13.630Z,416.00
2018-06-02T04:48:13.565Z,456.00
2018-06-02T04:49:14.572Z,420.00
2018-06-02T04:50:13.517Z,456.00
2018-06-02T04:51:15.632Z,472.00
2018-06-02T04:52:13.469Z,448.00
2018-06-02T04:53:14.517Z,460.00
2018-06-02T04:54:13.428Z,460.00
2018-06-02T04:55:13.480Z,516.00
2018-06-02T04:56:13.393Z,516.00
2018-06-02T04:57:14.414Z,496.00
2018-06-02T04:58:13.334Z,468.00
2018-06-02T04:59:13.307Z,516.00
2018-06-02T05:00:13.315Z,504.00
2018-06-02T05:01:13.250Z,472.00
2018-06-02T05:02:13.323Z,464.00
2018-06-02T05:03:13.233Z,488.00
2018-06-02T05:04:17.862Z,532.00
2018-06-02T05:05:13.172Z,488.00
2018-06-02T05:06:13.247Z,472.00
2018-06-02T05:07:13.113Z,428.00
2018-06-02T05:08:14.162Z,440.00
2018-06-02T05:09:13.089Z,476.00
2018-06-02T05:10:13.067Z,472.00
2018-06-02T05:11:13.020Z,500.00
2018-06-02T05:12:12.992Z,516.00
2018-06-02T05:13:13.087Z,520.00
2018-06-02T05:14:12.943Z,536.00
2018-06-02T05:15:13.052Z,540.00
2018-06-02T05:16:12.903Z,564.00
2018-06-02T05:17:13.887Z,596.00
2018-06-02T05:18:12.894Z,608.00
2018-06-02T05:19:13.841Z,576.00
2018-06-02T05:20:12.800Z,524.00
2018-06-02T05:21:17.745Z,504.00
2018-06-02T05:22:12.769Z,496.00
2018-06-02T05:23:13.769Z,528.00
2018-06-02T05:24:12.706Z,508.00
2018-06-02T05:25:12.764Z,592.00
2018-06-02T05:26:12.670Z,576.00
2018-06-02T05:27:12.709Z,572.00
2018-06-02T05:28:12.615Z,604.00
2018-06-02T05:29:13.756Z,624.00
2018-06-02T05:30:12.605Z,724.00
2018-06-02T05:31:38.292Z,736.00
2018-06-02T05:32:12.536Z,740.00
2018-06-02T05:33:17.313Z,880.00
2018-06-02T05:34:12.504Z,808.00
2018-06-02T06:55:23.313Z,1872.00
2018-06-02T06:56:10.414Z,1792.00
2018-06-02T06:57:10.297Z,1728.00
2018-06-02T06:58:10.223Z,2064.00
2018-06-02T06:59:14.699Z,2108.00
2018-06-02T07:00:10.164Z,2140.00
2018-06-02T07:01:10.129Z,2376.00
2018-06-02T07:02:10.110Z,2000.00
2018-06-02T07:03:11.107Z,2224.00
2018-06-02T07:04:10.061Z,1844.00
2018-06-02T07:05:12.051Z,1992.00
2018-06-02T07:06:10.003Z,2204.00
2018-06-02T07:07:10.994Z,2512.00
2018-06-02T07:08:09.980Z,1800.00
2018-06-02T07:09:11.986Z,2124.00
2018-06-02T07:10:09.977Z,2492.00
2018-06-02T07:11:10.907Z,2716.00
2018-06-02T07:12:09.883Z,2212.00
2018-06-02T07:13:22.693Z,1908.00
2018-06-02T07:14:09.820Z,1976.00
2018-06-02T07:15:11.826Z,1956.00
2018-06-02T07:16:09.809Z,2528.00
2018-06-02T07:17:15.696Z,1884.00
2018-06-02T07:18:09.721Z,1808.00
2018-06-02T07:19:11.779Z,1828.00
2018-06-02T07:20:09.699Z,1848.00
2018-06-02T07:21:09.658Z,1692.00
2018-06-02T07:22:09.638Z,1580.00
2018-06-02T07:23:10.636Z,1772.00
2018-06-02T07:24:09.581Z,2160.00
2018-06-02T07:25:10.549Z,2044.00
2018-06-02T07:26:09.527Z,1768.00
2018-06-02T07:27:11.531Z,1924.00
2018-06-02T07:28:09.511Z,1748.00
2018-06-02T07:29:09.481Z,1984.00
2018-06-02T07:30:09.435Z,1664.00
2018-06-02T07:31:22.215Z,1484.00
2018-06-02T07:32:09.397Z,1608.00
2018-06-02T07:33:11.383Z,1604.00
2018-06-02T07:34:09.341Z,1756.00
2018-06-02T07:35:20.198Z,1796.00
2018-06-02T07:36:09.381Z,1996.00
2018-06-02T07:37:10.274Z,1672.00
2018-06-02T07:38:09.237Z,1888.00
2018-06-02T07:39:11.243Z,1964.00
2018-06-02T07:40:09.215Z,2532.00
2018-06-02T07:41:15.748Z,2308.00
2018-06-02T07:42:09.240Z,2256.00
2018-06-02T07:43:14.688Z,2504.00
2018-06-02T07:44:09.133Z,2304.00
2018-06-02T07:45:10.131Z,2272.00
2018-06-02T07:46:09.053Z,2448.00
2018-06-02T07:47:09.041Z,2688.00
2018-06-02T07:48:09.020Z,2976.00
2018-06-02T07:49:14.719Z,2836.00
2018-06-02T07:50:09.083Z,2608.00
2018-06-02T07:51:08.961Z,2708.00
2018-06-02T07:52:08.943Z,3312.00
2018-06-02T07:53:09.988Z,3012.00
2018-06-02T07:54:08.893Z,2752.00
2018-06-02T07:55:08.860Z,2936.00
2018-06-02T07:56:08.857Z,2544.00
2018-06-02T07:57:14.750Z,2764.00
2018-06-02T07:58:08.781Z,2532.00
2018-06-02T07:59:08.762Z,2968.00
2018-06-02T08:00:08.715Z,3188.00
2018-06-02T08:01:08.718Z,2940.00
2018-06-02T08:02:08.687Z,2912.00
2018-06-02T08:03:09.679Z,2704.00
2018-06-02T08:04:08.661Z,2960.00
2018-06-02T08:05:14.225Z,2832.00
2018-06-02T08:06:08.602Z,2708.00
2018-06-02T08:07:08.587Z,3292.00
2018-06-02T08:08:08.578Z,3536.00
2018-06-02T08:09:08.524Z,3272.00
2018-06-02T08:10:08.497Z,3604.00
2018-06-02T08:11:25.229Z,3672.00
2018-06-02T08:12:08.481Z,4032.00
2018-06-02T08:13:08.444Z,3356.00
2018-06-02T08:14:08.403Z,2720.00
2018-06-02T08:15:09.411Z,2692.00
2018-06-02T08:16:08.367Z,3996.00
2018-06-02T08:17:09.333Z,4496.00
2018-06-02T08:18:08.311Z,3908.00
2018-06-02T08:19:09.302Z,3860.00
2018-06-02T08:20:08.259Z,4724.00
2018-06-02T08:21:08.235Z,4568.00
2018-06-02T08:22:08.221Z,4340.00
2018-06-02T08:23:08.215Z,4956.00
2018-06-02T08:24:08.190Z,4912.00
2018-06-02T08:25:19.711Z,4752.00
2018-06-02T08:26:08.125Z,5128.00
2018-06-02T08:27:10.105Z,3940.00
2018-06-02T08:28:08.078Z,4532.00
2018-06-02T08:29:35.707Z,5112.00
2018-06-02T08:30:08.015Z,4688.00
2018-06-02T08:31:08.004Z,5132.00
2018-06-02T08:32:09.070Z,4980.00
2018-06-02T08:33:07.974Z,4304.00
2018-06-02T08:34:18.715Z,3668.00
2018-06-02T08:35:07.903Z,3616.00
2018-06-02T08:36:07.886Z,3116.00
2018-06-02T08:37:07.837Z,3060.00
2018-06-02T08:38:14.722Z,4284.00
2018-06-02T08:39:07.802Z,3676.00
2018-06-02T08:40:08.828Z,3228.00
2018-06-02T08:41:07.786Z,3612.00
2018-06-02T08:42:14.718Z,4120.00
2018-06-02T08:43:07.720Z,3416.00
2018-06-02T08:44:07.771Z,3464.00
2018-06-02T08:45:07.685Z,3152.00
2018-06-02T08:46:08.664Z,2844.00
2018-06-02T08:47:07.615Z,2664.00
2018-06-02T08:48:07.605Z,3132.00
2018-06-02T08:49:07.565Z,3208.00
2018-06-02T08:50:08.553Z,2656.00
2018-06-02T08:51:07.521Z,3332.00
2018-06-02T08:52:07.505Z,4420.00
2018-06-02T08:53:07.491Z,4220.00
2018-06-02T08:54:07.456Z,4924.00
2018-06-02T08:55:07.436Z,5272.00
2018-06-02T08:56:09.440Z,4944.00
2018-06-02T08:57:07.372Z,5812.00
2018-06-02T08:58:24.231Z,4744.00
2018-06-02T08:59:07.332Z,4532.00
2018-06-02T09:00:22.309Z,4980.00
2018-06-02T09:01:07.316Z,5036.00
2018-06-02T09:02:13.235Z,6284.00
2018-06-02T09:03:07.245Z,6932.00
2018-06-02T09:04:13.737Z,7132.00
2018-06-02T09:05:07.220Z,5016.00
2018-06-02T09:06:17.715Z,5864.00
2018-06-02T09:07:07.172Z,7832.00
2018-06-02T09:08:07.122Z,9532.00
2018-06-02T09:09:07.094Z,9888.00
2018-06-02T10:41:54.137Z,6440.00
2018-06-02T10:42:54.113Z,5464.00
2018-06-02T10:43:54.125Z,4596.00
2018-06-02T10:44:54.123Z,4536.00
2018-06-02T10:45:54.184Z,5204.00
2018-06-02T10:46:54.156Z,5672.00
2018-06-02T10:47:54.068Z,7452.00
2018-06-02T10:48:53.945Z,9704.00
2018-06-02T10:49:53.948Z,9564.00
2018-06-02T10:50:53.932Z,8300.00
2018-06-02T10:51:54.095Z,9400.00
2018-06-02T10:52:53.865Z,9668.00
2018-06-02T10:53:53.904Z,9344.00
2018-06-02T10:54:53.837Z,9044.00
2018-06-02T10:55:54.001Z,8488.00
2018-06-02T10:56:53.790Z,8360.00
2018-06-02T10:57:53.758Z,8064.00
2018-06-02T10:58:53.748Z,6980.00
2018-06-02T10:59:53.716Z,5580.00
2018-06-02T11:00:53.703Z,4516.00
2018-06-02T11:01:53.742Z,4016.00
2018-06-02T11:02:53.619Z,3744.00
2018-06-02T11:03:53.678Z,3588.00
2018-06-02T11:04:53.584Z,3400.00
2018-06-02T11:05:54.957Z,3172.00
2018-06-02T11:06:53.565Z,3028.00
2018-06-02T11:07:53.737Z,3064.00
2018-06-02T11:08:53.498Z,3440.00
2018-06-02T11:09:53.477Z,4004.00
2018-06-02T11:10:53.519Z,4560.00
2018-06-02T11:11:53.433Z,5212.00
2018-06-02T11:12:53.405Z,5720.00
2018-06-02T11:13:53.389Z,6180.00
2018-06-02T11:14:53.377Z,6680.00
2018-06-02T11:15:53.359Z,7312.00
2018-06-02T11:16:53.308Z,7540.00
2018-06-02T11:17:53.327Z,7164.00
2018-06-02T11:18:53.283Z,6816.00
2018-06-02T11:19:54.259Z,6500.00
2018-06-02T11:20:53.229Z,6140.00
2018-06-02T11:21:53.249Z,5216.00
2018-06-02T11:22:53.180Z,3988.00
2018-06-02T11:23:53.199Z,3380.00
2018-06-02T11:24:53.151Z,3224.00
2018-06-02T11:28:13.431Z,3476.00
2018-06-02T11:29:13.548Z,3412.00
2018-06-02T11:30:15.017Z,3220.00
2018-06-02T11:31:12.998Z,3112.00
2018-06-02T11:32:13.861Z,3100.00
2018-06-02T11:33:12.803Z,3176.00
2018-06-02T11:34:12.881Z,3256.00
2018-06-02T11:35:12.760Z,3272.00
2018-06-02T11:36:12.797Z,3356.00
2018-06-02T11:37:12.735Z,3348.00
2018-06-02T11:38:14.784Z,3508.00
2018-06-02T11:39:12.671Z,4092.00
2018-06-02T11:40:12.757Z,4708.00
2018-06-02T11:41:12.608Z,5056.00
2018-06-02T11:42:17.340Z,5036.00
2018-06-02T11:43:12.725Z,4836.00
2018-06-02T11:44:12.726Z,4900.00
2018-06-02T11:45:12.524Z,5356.00
2018-06-02T11:46:12.508Z,5904.00
2018-06-02T11:47:12.523Z,6700.00
2018-06-02T11:48:12.499Z,7660.00
2018-06-02T11:49:12.443Z,8592.00
2018-06-02T11:50:12.448Z,9452.00
2018-06-02T11:51:12.499Z,10064.00
2018-06-02T11:52:12.383Z,10316.00
2018-06-02T11:53:12.334Z,10408.00
2018-06-02T11:54:12.346Z,10296.00
2018-06-02T11:55:12.325Z,10028.00
2018-06-02T11:56:12.281Z,9796.00
2018-06-02T11:57:12.243Z,9620.00
2018-06-02T11:58:12.249Z,9540.00
2018-06-02T11:59:12.200Z,9448.00
2018-06-02T12:00:12.211Z,9432.00
2018-06-02T12:01:12.139Z,8548.00
2018-06-02T12:02:12.137Z,7276.00
2018-06-02T12:03:12.156Z,5248.00
2018-06-02T12:04:12.142Z,3816.00
2018-06-02T12:05:12.068Z,3024.00
2018-06-02T12:06:12.169Z,2712.00
2018-06-02T12:07:12.101Z,2540.00
2018-06-02T12:08:12.015Z,2512.00
2018-06-02T12:09:11.986Z,2392.00
2018-06-02T12:10:11.963Z,2440.00
2018-06-02T12:11:11.918Z,2792.00
2018-06-02T12:12:11.921Z,3180.00
2018-06-02T12:13:11.899Z,3468.00
2018-06-02T12:14:11.882Z,3396.00
2018-06-02T12:15:11.822Z,3232.00
2018-06-02T12:16:17.811Z,3208.00
2018-06-02T12:17:11.772Z,3380.00
2018-06-02T12:18:48.844Z,3640.00
2018-06-02T12:19:11.752Z,3984.00
2018-06-02T12:20:11.786Z,4368.00
2018-06-02T12:21:17.284Z,4772.00
2018-06-02T12:22:11.667Z,5020.00
2018-06-02T12:23:11.645Z,5296.00
2018-06-02T12:24:11.620Z,5524.00
2018-06-02T12:25:11.625Z,5664.00
2018-06-02T12:26:11.612Z,5648.00
2018-06-02T12:27:22.284Z,5464.00
2018-06-02T12:28:11.577Z,5188.00
2018-06-02T12:29:13.509Z,4756.00
2018-06-02T12:30:11.511Z,4068.00
2018-06-02T12:31:11.474Z,3284.00
2018-06-02T12:32:11.462Z,2648.00
2018-06-02T12:33:13.447Z,2596.00
2018-06-02T12:34:11.417Z,2708.00
2018-06-02T12:35:11.398Z,2592.00
2018-06-02T12:36:11.332Z,2076.00
2018-06-02T12:37:22.282Z,1804.00
2018-06-02T12:38:11.282Z,1652.00
2018-06-02T12:39:16.270Z,1656.00
2018-06-02T12:40:11.291Z,1592.00
2018-06-02T12:41:11.303Z,1620.00
2018-06-02T12:42:11.204Z,1752.00
2018-06-02T12:43:11.185Z,1592.00
2018-06-02T12:44:11.148Z,1540.00
2018-06-02T12:45:13.170Z,1500.00
2018-06-02T12:46:11.107Z,1464.00
2018-06-02T12:47:11.088Z,1472.00
2018-06-02T12:48:11.065Z,1652.00
2018-06-02T12:49:12.073Z,2024.00
2018-06-02T12:50:11.027Z,2312.00
2018-06-02T12:51:12.002Z,2508.00
2018-06-02T12:52:11.029Z,2764.00
2018-06-02T12:53:11.987Z,3080.00
2018-06-02T12:54:10.928Z,3616.00
2018-06-02T12:55:11.923Z,4100.00
2018-06-02T12:56:10.864Z,4520.00
2018-06-02T12:57:11.864Z,4664.00
2018-06-02T12:58:10.838Z,4868.00
2018-06-02T12:59:10.808Z,5064.00
2018-06-02T13:00:10.805Z,6284.00
2018-06-02T13:01:11.777Z,7532.00
2018-06-02T13:02:10.726Z,8276.00
2018-06-02T13:03:16.282Z,8960.00
2018-06-02T13:04:10.712Z,9716.00
2018-06-02T13:05:10.646Z,10056.00
2018-06-02T13:06:10.689Z,10228.00
2018-06-02T13:07:10.636Z,9560.00
2018-06-02T13:08:10.606Z,8952.00
2018-06-02T13:09:12.654Z,8132.00
2018-06-02T13:10:10.559Z,7196.00
2018-06-02T13:11:10.542Z,7060.00
2018-06-02T13:12:10.512Z,7660.00
2018-06-02T13:13:12.505Z,9148.00
2018-06-02T13:14:10.452Z,9800.00
2018-06-02T13:15:11.430Z,9476.00
2018-06-02T13:16:10.391Z,8712.00
2018-06-02T13:17:10.383Z,7432.00
2018-06-02T13:18:10.357Z,6820.00
2018-06-02T13:19:10.322Z,6212.00
2018-06-02T13:20:10.308Z,5920.00
2018-06-02T13:21:11.361Z,5660.00
2018-06-02T13:22:10.260Z,5536.00
2018-06-02T13:23:10.260Z,5704.00
2018-06-02T13:24:10.230Z,5956.00
2018-06-02T13:25:10.206Z,5620.00
2018-06-02T13:26:10.192Z,6232.00
2018-06-02T13:27:14.756Z,5400.00
2018-06-02T13:28:10.168Z,4344.00
2018-06-02T13:29:15.868Z,4560.00
2018-06-02T13:30:10.087Z,4644.00
2018-06-02T13:31:10.164Z,4408.00
2018-06-02T13:32:10.030Z,4016.00
2018-06-02T13:33:10.035Z,3828.00
2018-06-02T13:34:09.983Z,4216.00
2018-06-02T13:35:09.976Z,4204.00
2018-06-02T13:36:09.961Z,4064.00
2018-06-02T13:37:10.952Z,4332.00
2018-06-02T13:38:09.932Z,4460.00
2018-06-02T13:39:10.892Z,4972.00
2018-06-02T13:40:09.865Z,5936.00
2018-06-02T13:41:14.810Z,6072.00
2018-06-02T13:42:09.796Z,6432.00
2018-06-02T13:43:11.811Z,6416.00
2018-06-02T13:44:09.764Z,6160.00
2018-06-02T13:45:09.724Z,5548.00
2018-06-02T13:46:09.698Z,4820.00
2018-06-02T13:47:11.785Z,4536.00
2018-06-02T13:48:09.764Z,4692.00
2018-06-02T13:49:10.655Z,5556.00
2018-06-02T13:50:09.643Z,6064.00
2018-06-02T13:51:09.595Z,6276.00
2018-06-02T13:52:09.573Z,5980.00
2018-06-02T13:53:09.559Z,5456.00
2018-06-02T13:54:09.520Z,4932.00
2018-06-02T13:55:09.507Z,5176.00
2018-06-02T13:56:09.471Z,4472.00
2018-06-02T13:57:09.498Z,3956.00
2018-06-02T13:58:09.417Z,3608.00
2018-06-02T13:59:09.454Z,3916.00
2018-06-02T14:00:09.398Z,4428.00
2018-06-02T14:01:09.361Z,4696.00
2018-06-02T14:02:09.340Z,5048.00
2018-06-02T14:03:09.318Z,5592.00
2018-06-02T14:04:09.303Z,6164.00
2018-06-02T14:05:11.346Z,6456.00
2018-06-02T14:06:09.242Z,6936.00
2018-06-02T14:07:09.223Z,6952.00
2018-06-02T14:08:09.216Z,7352.00
2018-06-02T14:09:09.239Z,7464.00
2018-06-02T14:10:09.147Z,7304.00
2018-06-02T14:11:09.236Z,6896.00
2018-06-02T14:12:09.141Z,5464.00
2018-06-02T14:13:09.106Z,4328.00
2018-06-02T14:14:09.053Z,3892.00
2018-06-02T14:15:09.040Z,3472.00
2018-06-02T14:16:09.013Z,3060.00
2018-06-02T14:17:09.000Z,2492.00
2018-06-02T14:18:08.967Z,2488.00
2018-06-02T14:19:09.976Z,2536.00
2018-06-02T14:20:08.940Z,2756.00
2018-06-02T14:21:08.911Z,4572.00
2018-06-02T14:22:08.908Z,4860.00
2018-06-02T14:23:08.850Z,4296.00
2018-06-02T14:24:08.860Z,4240.00
2018-06-02T14:25:08.828Z,3564.00
2018-06-02T14:26:08.828Z,2912.00
2018-06-02T14:27:08.771Z,3008.00
2018-06-02T14:28:08.795Z,3540.00
2018-06-02T14:29:08.718Z,3792.00
2018-06-02T14:30:08.689Z,4712.00
2018-06-02T14:31:08.705Z,5880.00
2018-06-02T14:32:08.663Z,5544.00
2018-06-02T14:33:08.709Z,4612.00
2018-06-02T14:34:08.587Z,3836.00
2018-06-02T14:35:08.573Z,3848.00
2018-06-02T14:36:08.571Z,4420.00
2018-06-02T14:37:08.544Z,5164.00
2018-06-02T14:38:08.634Z,5324.00
2018-06-02T14:39:10.289Z,5304.00
2018-06-02T14:40:08.494Z,5432.00
2018-06-02T14:41:08.449Z,5508.00
2018-06-02T14:42:08.407Z,5524.00
2018-06-02T14:43:09.415Z,5488.00
2018-06-02T14:44:08.374Z,5352.00
2018-06-02T14:45:08.441Z,5432.00
2018-06-02T14:46:08.344Z,5488.00
2018-06-02T14:47:08.312Z,5592.00
2018-06-02T14:48:08.298Z,5472.00
2018-06-02T14:49:08.280Z,5092.00
2018-06-02T14:50:08.241Z,5032.00
2018-06-02T14:51:09.414Z,5128.00
2018-06-02T14:52:08.188Z,5176.00
2018-06-02T14:53:09.189Z,5224.00
2018-06-02T14:54:08.137Z,5364.00
2018-06-02T14:55:08.144Z,5704.00
2018-06-02T14:56:08.112Z,6060.00
2018-06-02T14:57:09.078Z,6344.00
2018-06-02T14:58:08.051Z,6328.00
2018-06-02T14:59:08.027Z,5892.00
2018-06-02T15:00:08.033Z,5520.00
2018-06-02T15:01:07.996Z,5236.00
2018-06-02T15:02:07.970Z,4880.00
2018-06-02T15:03:07.946Z,4280.00
2018-06-02T15:04:07.908Z,4028.00
2018-06-02T15:05:07.964Z,3560.00
2018-06-02T15:06:07.889Z,3328.00
2018-06-02T15:07:07.854Z,3252.00
2018-06-02T15:08:07.857Z,3356.00
2018-06-02T15:09:08.849Z,3480.00
2018-06-02T15:10:07.812Z,3388.00
2018-06-02T15:11:07.841Z,3080.00
2018-06-02T15:12:07.786Z,2648.00
2018-06-02T15:13:07.736Z,2540.00
2018-06-02T15:14:07.684Z,2584.00
2018-06-02T15:15:07.769Z,2684.00
2018-06-02T15:16:07.634Z,2824.00
2018-06-02T15:17:07.671Z,2796.00
2018-06-02T15:18:07.607Z,3168.00
2018-06-02T15:19:07.717Z,3048.00
2018-06-02T15:20:07.553Z,2972.00
2018-06-02T15:21:07.599Z,3280.00
2018-06-02T15:22:07.575Z,3048.00
2018-06-02T15:23:07.509Z,3156.00
2018-06-02T15:24:07.438Z,3388.00
2018-06-02T15:25:08.010Z,2936.00
2018-06-02T15:26:07.418Z,2832.00
2018-06-02T15:27:07.454Z,3036.00
2018-06-02T15:28:07.388Z,2900.00
2018-06-02T15:29:12.371Z,3188.00
2018-06-02T15:30:07.366Z,3268.00
2018-06-02T15:31:07.445Z,3424.00
2018-06-02T15:32:07.274Z,2988.00
2018-06-02T15:33:08.340Z,2836.00
2018-06-02T15:34:07.238Z,2428.00
2018-06-02T15:35:08.328Z,2176.00
2018-06-02T15:36:07.193Z,2176.00
2018-06-02T15:37:08.202Z,3244.00
2018-06-02T15:38:07.132Z,3420.00
2018-06-02T15:39:12.842Z,2912.00
2018-06-02T15:40:07.121Z,2560.00
2018-06-02T15:41:09.191Z,2408.00
2018-06-02T15:42:07.113Z,2384.00
2018-06-02T15:43:19.823Z,2256.00
2018-06-02T15:44:06.993Z,2208.00
2018-06-02T15:45:07.041Z,2244.00
2018-06-02T15:46:06.960Z,2204.00
2018-06-02T15:47:09.010Z,2172.00
2018-06-02T15:48:06.930Z,2140.00
2018-06-02T15:49:07.994Z,2128.00
2018-06-02T15:50:06.863Z,2108.00
2018-06-02T15:51:11.904Z,2092.00
2018-06-02T15:52:06.814Z,2080.00
2018-06-02T15:53:08.850Z,2060.00
2018-06-02T15:54:06.766Z,2044.00
2018-06-02T16:00:50.680Z,1972.00
2018-06-02T16:01:47.425Z,1964.00
2018-06-02T16:02:48.323Z,1956.00
2018-06-02T16:03:47.186Z,1944.00
2018-06-02T16:04:47.221Z,1936.00
2018-06-02T16:05:47.146Z,1916.00
2018-06-02T16:06:48.112Z,1908.00
2018-06-02T16:07:47.089Z,1892.00
2018-06-02T16:08:47.104Z,1916.00
2018-06-02T16:09:47.084Z,1948.00
2018-06-02T16:10:57.681Z,1972.00
2018-06-02T16:11:46.994Z,1976.00
2018-06-02T16:12:47.099Z,1964.00
2018-06-02T16:13:46.945Z,1952.00
2018-06-02T16:14:48.064Z,1976.00
2018-06-02T16:15:46.945Z,1980.00
2018-06-02T16:16:46.984Z,1980.00
2018-06-02T16:17:46.865Z,1948.00
2018-06-02T16:18:46.917Z,1968.00
2018-06-02T16:19:46.909Z,1988.00
2018-06-02T16:20:47.015Z,2012.00
2018-06-02T16:21:46.770Z,2000.00
2018-06-02T16:22:46.822Z,1968.00
2018-06-02T16:23:46.707Z,1948.00
2018-06-02T16:24:46.729Z,1928.00
2018-06-02T16:25:46.739Z,1900.00
2018-06-02T16:26:46.771Z,1896.00
2018-06-02T16:27:46.646Z,1900.00
2018-06-02T16:28:46.696Z,1884.00
2018-06-02T16:29:46.588Z,1896.00
2018-06-02T16:30:46.654Z,1892.00
2018-06-02T16:31:46.564Z,1896.00
2018-06-02T16:32:46.585Z,1880.00
2018-06-02T16:33:46.522Z,1880.00
2018-06-02T16:34:46.655Z,1888.00
2018-06-02T16:35:46.443Z,1892.00
2018-06-02T16:36:47.555Z,1900.00
2018-06-02T16:37:46.453Z,1908.00
2018-06-02T16:38:46.391Z,1908.00
2018-06-02T16:39:46.378Z,1880.00
2018-06-02T16:40:46.413Z,1868.00
2018-06-02T16:41:46.300Z,1856.00
2018-06-02T16:42:46.339Z,1908.00
2018-06-02T16:43:46.274Z,1936.00
2018-06-02T16:44:46.402Z,1916.00
2018-06-02T16:45:46.221Z,1924.00
2018-06-02T16:46:46.250Z,1904.00
2018-06-02T16:47:46.209Z,1884.00
2018-06-02T16:48:47.276Z,1872.00
2018-06-02T16:49:46.208Z,1876.00
2018-06-02T16:50:47.222Z,1844.00
2018-06-02T16:51:46.077Z,1800.00
2018-06-02T16:52:46.163Z,1760.00
2018-06-02T16:53:46.048Z,1732.00
2018-06-02T16:54:46.139Z,1728.00
2018-06-02T16:55:46.050Z,1716.00
2018-06-02T16:56:46.025Z,1720.00